Time;durP1;ratioP1;P1;durP2;ratioP2;P2;SDS_P1;SDS_P2;PMS_P1;PMS_P2;Temp;Humidity;BMP_temperature;BMP_pressure;BME280_temperature;BME280_humidity;BME280_pressure;Samples;Min_cycle;Max_cycle;Signal;HPM_P1;HPM_P2
2022/05/31 00:01:08;;;;;;;2.17;2.07;;;20.30;39.50;;;;;;4978427;28;20256;-59
2022/05/31 00:03:34;;;;;;;2.10;1.90;;;20.30;39.50;;;;;;4982735;28;20642;-59
2022/05/31 00:06:00;;;;;;;2.23;2.07;;;20.30;39.50;;;;;;4975811;28;20451;-59
2022/05/31 00:08:25;;;;;;;2.00;1.90;;;20.30;39.50;;;;;;4978282;28;20254;-59
2022/05/31 00:10:51;;;;;;;2.20;2.10;;;20.30;39.50;;;;;;4978292;28;20222;-59
2022/05/31 00:13:16;;;;;;;2.30;2.20;;;20.30;39.50;;;;;;4995341;28;20224;-59
2022/05/31 00:15:42;;;;;;;2.30;2.10;;;20.30;39.50;;;;;;4980510;28;20631;-59
2022/05/31 00:18:08;;;;;;;2.40;2.30;;;20.30;39.50;;;;;;4980601;28;20230;-59
2022/05/31 00:20:34;;;;;;;2.43;2.33;;;20.30;39.50;;;;;;4976473;28;20232;-59
2022/05/31 00:23:00;;;;;;;2.50;2.40;;;20.30;39.50;;;;;;4981092;28;20597;-59
2022/05/31 00:25:25;;;;;;;2.50;2.30;;;20.30;39.50;;;;;;4979572;28;20630;-59
2022/05/31 00:27:51;;;;;;;2.47;2.37;;;20.30;39.50;;;;;;4984214;28;20225;-59
2022/05/31 00:30:16;;;;;;;2.27;2.17;;;20.30;39.50;;;;;;4982605;28;20229;-59
2022/05/31 00:32:47;;;;;;;2.40;2.30;;;20.30;39.50;;;;;;4982207;28;20221;-59
2022/05/31 00:35:30;;;;;;;2.30;2.20;;;20.30;39.50;;;;;;4982054;28;20245;-59
2022/05/31 00:37:58;;;;;;;2.50;2.30;;;20.30;39.40;;;;;;4979087;28;20869;-59
2022/05/31 00:40:25;;;;;;;2.73;2.53;;;20.30;39.40;;;;;;4979620;28;20486;-59
2022/05/31 00:42:57;;;;;;;2.43;2.20;;;20.30;39.40;;;;;;4980449;28;20470;-59
2022/05/31 00:45:36;;;;;;;2.20;2.10;;;20.30;39.30;;;;;;4980226;28;20494;-59
2022/05/31 00:48:03;;;;;;;2.43;2.33;;;20.30;39.30;;;;;;4979126;28;20424;-59
2022/05/31 00:51:02;;;;;;;2.40;2.30;;;20.30;39.40;;;;;;4982718;28;20463;-59
2022/05/31 00:53:37;;;;;;;2.47;2.37;;;20.30;39.30;;;;;;4978130;28;21117;-59
2022/05/31 00:56:07;;;;;;;2.40;2.30;;;20.30;39.40;;;;;;4976274;28;20931;-59
2022/05/31 00:58:44;;;;;;;2.63;2.53;;;20.30;39.30;;;;;;4978597;28;20867;-59
2022/05/31 01:01:13;;;;;;;2.40;2.30;;;20.30;39.30;;;;;;4984865;28;20938;-59
2022/05/31 01:03:40;;;;;;;2.43;2.23;;;20.30;39.30;;;;;;4981767;28;20997;-59
2022/05/31 01:06:07;;;;;;;2.37;2.27;;;20.30;39.30;;;;;;4985549;28;21151;-59
2022/05/31 01:08:36;;;;;;;2.83;2.63;;;20.30;39.30;;;;;;4989214;28;20451;-60
2022/05/31 01:11:03;;;;;;;2.70;2.60;;;20.30;39.20;;;;;;4983186;28;20417;-59
2022/05/31 01:13:29;;;;;;;2.23;2.13;;;20.30;39.20;;;;;;4976735;28;20465;-59
2022/05/31 01:16:04;;;;;;;2.30;2.20;;;20.30;39.20;;;;;;5002942;28;20842;-59
2022/05/31 01:18:30;;;;;;;2.53;2.43;;;20.30;39.20;;;;;;4980201;28;20457;-59
2022/05/31 01:20:55;;;;;;;2.47;2.33;;;20.30;39.20;;;;;;4978909;28;20425;-59
2022/05/31 01:23:24;;;;;;;2.87;2.67;;;20.30;39.20;;;;;;4985768;28;20460;-59
2022/05/31 01:26:05;;;;;;;2.70;2.50;;;20.30;39.10;;;;;;4989410;28;20731;-59
2022/05/31 01:28:51;;;;;;;3.80;2.90;;;20.30;39.10;;;;;;4982326;28;20482;-59
2022/05/31 01:31:27;;;;;;;2.80;2.63;;;20.30;39.10;;;;;;4982810;28;20433;-59
2022/05/31 01:33:55;;;;;;;2.73;2.63;;;20.30;39.10;;;;;;4976597;28;20455;-59
2022/05/31 01:36:30;;;;;;;2.57;2.37;;;20.30;39.20;;;;;;4983055;28;20433;-59
2022/05/31 01:39:02;;;;;;;2.80;2.70;;;20.30;39.10;;;;;;4980096;28;20788;-59
2022/05/31 01:41:49;;;;;;;2.40;2.30;;;20.30;39.00;;;;;;4981315;28;20495;-59
2022/05/31 01:44:18;;;;;;;3.23;3.03;;;20.30;39.10;;;;;;4982375;28;20803;-59
2022/05/31 01:46:47;;;;;;;2.70;2.60;;;20.30;39.10;;;;;;4979525;28;20455;-59
2022/05/31 01:49:14;;;;;;;2.77;2.67;;;20.30;39.00;;;;;;4981844;28;20436;-60
2022/05/31 01:51:42;;;;;;;2.90;2.80;;;20.30;39.00;;;;;;4979695;28;20437;-60
2022/05/31 01:54:09;;;;;;;2.70;2.60;;;20.30;39.00;;;;;;4978720;28;20553;-61
2022/05/31 01:56:36;;;;;;;5.40;2.67;;;20.30;38.90;;;;;;4981762;28;20438;-61
2022/05/31 01:59:03;;;;;;;3.20;3.00;;;20.30;38.90;;;;;;4978590;28;20447;-61
2022/05/31 02:01:31;;;;;;;2.70;2.60;;;20.30;39.00;;;;;;4986091;28;20991;-61
2022/05/31 02:03:58;;;;;;;3.27;2.97;;;20.30;38.80;;;;;;4979345;28;20525;-60
2022/05/31 02:06:29;;;;;;;2.87;2.70;;;20.30;38.80;;;;;;4979165;28;20902;-61
2022/05/31 02:08:54;;;;;;;3.13;2.93;;;20.30;38.80;;;;;;4978750;28;20441;-60
2022/05/31 02:11:20;;;;;;;2.73;2.63;;;20.30;38.70;;;;;;4979320;28;20484;-60
2022/05/31 02:13:46;;;;;;;3.33;3.13;;;20.30;38.80;;;;;;4976393;28;20265;-60
2022/05/31 02:16:13;;;;;;;2.70;2.50;;;20.30;38.70;;;;;;4977102;28;20554;-60
2022/05/31 02:21:23;;;;;;;2.67;2.57;;;20.30;38.80;;;;;;4985047;28;20485;-60
2022/05/31 02:23:49;;;;;;;2.90;2.80;;;20.30;38.70;;;;;;4983937;28;20461;-60
2022/05/31 02:26:14;;;;;;;3.03;2.83;;;20.30;38.70;;;;;;4982153;28;20679;-60
2022/05/31 02:28:40;;;;;;;2.50;2.40;;;20.30;38.70;;;;;;4984157;28;20726;-60
2022/05/31 02:31:05;;;;;;;2.77;2.57;;;20.30;38.70;;;;;;4982831;28;20232;-59
2022/05/31 02:33:31;;;;;;;3.40;3.20;;;20.30;38.70;;;;;;4974971;28;20248;-60
2022/05/31 02:35:57;;;;;;;3.10;2.90;;;20.30;38.60;;;;;;4987852;28;20666;-60
2022/05/31 02:38:22;;;;;;;3.20;3.00;;;20.30;38.70;;;;;;4980650;28;20674;-59
2022/05/31 02:40:48;;;;;;;2.77;2.60;;;20.30;38.70;;;;;;4983091;28;20263;-60
2022/05/31 02:43:13;;;;;;;2.70;2.60;;;20.30;38.60;;;;;;4985458;28;20252;-60
2022/05/31 02:45:39;;;;;;;3.00;2.80;;;20.30;38.60;;;;;;4977994;28;20234;-60
2022/05/31 02:48:05;;;;;;;3.40;3.20;;;20.30;38.60;;;;;;4984612;28;20238;-60
2022/05/31 02:50:30;;;;;;;2.60;2.50;;;20.30;38.60;;;;;;4983651;28;20224;-60
2022/05/31 02:52:56;;;;;;;2.90;2.70;;;20.30;38.60;;;;;;4976902;28;20683;-59
2022/05/31 02:55:21;;;;;;;5.37;3.03;;;20.30;38.60;;;;;;4980801;28;20248;-60
2022/05/31 02:57:47;;;;;;;3.10;2.90;;;20.30;38.60;;;;;;4997493;28;20239;-59
2022/05/31 03:00:14;;;;;;;3.17;2.97;;;20.30;38.60;;;;;;4975204;28;20643;-60
2022/05/31 03:02:40;;;;;;;3.17;2.97;;;20.30;38.60;;;;;;4980751;28;20244;-60
2022/05/31 03:05:06;;;;;;;2.80;2.70;;;20.30;38.60;;;;;;4980050;28;20421;-59
2022/05/31 03:07:32;;;;;;;3.13;2.93;;;20.30;38.60;;;;;;4980337;28;20233;-60
2022/05/31 03:09:57;;;;;;;3.00;2.80;;;20.30;38.60;;;;;;4980291;28;20461;-59
2022/05/31 03:12:25;;;;;;;3.40;3.20;;;20.30;38.60;;;;;;4980916;28;20236;-59
2022/05/31 03:15:09;;;;;;;3.40;3.20;;;20.20;38.50;;;;;;4981387;28;20293;-59
2022/05/31 03:17:38;;;;;;;3.00;2.90;;;20.20;38.50;;;;;;4979675;28;20466;-59
2022/05/31 03:20:18;;;;;;;3.17;3.03;;;20.30;38.60;;;;;;4975711;28;20504;-59
2022/05/31 03:22:52;;;;;;;2.93;2.80;;;20.20;38.50;;;;;;4979911;28;20446;-59
2022/05/31 03:25:26;;;;;;;2.90;2.80;;;20.30;38.60;;;;;;4976475;28;20512;-59
2022/05/31 03:27:54;;;;;;;3.10;2.93;;;20.30;38.60;;;;;;4979097;28;20415;-59
2022/05/31 03:30:20;;;;;;;3.30;3.10;;;20.30;38.60;;;;;;4977605;28;20786;-59
2022/05/31 03:32:46;;;;;;;3.00;2.77;;;20.20;38.50;;;;;;4977068;28;20450;-59
2022/05/31 03:35:12;;;;;;;3.27;3.07;;;20.20;38.50;;;;;;4976830;28;20221;-59
2022/05/31 03:37:38;;;;;;;3.00;2.80;;;20.30;38.50;;;;;;4972639;28;20463;-59
2022/05/31 03:40:05;;;;;;;3.20;3.00;;;20.20;38.50;;;;;;4974328;28;20236;-60
2022/05/31 03:42:30;;;;;;;3.77;3.47;;;20.20;38.40;;;;;;4979166;28;20422;-60
2022/05/31 03:44:56;;;;;;;3.43;3.20;;;20.20;38.50;;;;;;4981401;28;20974;-59
2022/05/31 03:47:21;;;;;;;3.10;2.90;;;20.30;38.60;;;;;;4975765;28;20225;-59
2022/05/31 03:49:47;;;;;;;3.30;3.00;;;20.30;38.50;;;;;;4984533;28;20260;-59
2022/05/31 03:52:13;;;;;;;2.67;2.50;;;20.20;38.40;;;;;;4980314;28;20217;-59
2022/05/31 03:54:38;;;;;;;4.27;3.27;;;20.20;38.30;;;;;;4978178;28;20233;-59
2022/05/31 03:57:06;;;;;;;2.93;2.77;;;20.20;38.40;;;;;;4983629;28;20227;-59
2022/05/31 03:59:36;;;;;;;3.13;3.03;;;20.20;38.40;;;;;;4981545;28;20218;-59
2022/05/31 04:02:02;;;;;;;2.63;2.53;;;20.20;38.40;;;;;;5000164;28;20451;-59
2022/05/31 04:04:28;;;;;;;3.40;3.20;;;20.20;38.40;;;;;;4983495;28;20478;-59
2022/05/31 04:06:53;;;;;;;2.57;2.47;;;20.20;38.40;;;;;;4978906;28;20447;-59
2022/05/31 04:09:19;;;;;;;3.33;3.13;;;20.20;38.40;;;;;;4988237;28;20220;-59
2022/05/31 04:11:44;;;;;;;3.47;3.27;;;20.20;38.40;;;;;;4997217;28;20229;-59
2022/05/31 04:14:10;;;;;;;3.10;3.00;;;20.20;38.40;;;;;;4983964;28;20224;-59
2022/05/31 04:16:36;;;;;;;3.40;3.20;;;20.20;38.30;;;;;;4986534;28;20608;-59
2022/05/31 04:19:02;;;;;;;3.27;3.10;;;20.20;38.30;;;;;;4982374;28;20720;-59
2022/05/31 04:21:27;;;;;;;3.23;3.03;;;20.20;38.40;;;;;;4983366;28;20241;-59
2022/05/31 04:23:59;;;;;;;3.23;3.03;;;20.20;38.40;;;;;;4985556;28;20509;-59
2022/05/31 04:26:35;;;;;;;2.50;2.40;;;20.20;38.30;;;;;;4984727;28;20220;-59
2022/05/31 04:29:01;;;;;;;3.20;3.10;;;20.20;38.30;;;;;;4983385;28;20466;-59
2022/05/31 04:31:26;;;;;;;5.37;3.37;;;20.20;38.40;;;;;;4984313;28;20528;-59
2022/05/31 04:33:52;;;;;;;2.87;2.77;;;20.20;38.40;;;;;;4979295;28;20221;-61
2022/05/31 04:36:20;;;;;;;3.10;2.90;;;20.20;38.30;;;;;;4983851;28;20216;-59
2022/05/31 04:38:46;;;;;;;3.30;3.10;;;20.20;38.40;;;;;;4982929;28;20509;-60
2022/05/31 04:41:21;;;;;;;3.40;3.20;;;20.20;38.40;;;;;;4981403;28;20891;-61
2022/05/31 04:43:46;;;;;;;3.00;2.80;;;20.20;38.30;;;;;;4981289;28;20417;-61
2022/05/31 04:46:15;;;;;;;2.93;2.73;;;20.20;38.40;;;;;;4978958;28;20546;-62
2022/05/31 04:48:41;;;;;;;3.50;3.20;;;20.20;38.50;;;;;;4983381;28;20233;-61
2022/05/31 04:51:07;;;;;;;3.47;3.23;;;20.20;38.40;;;;;;4983134;28;20551;-61
2022/05/31 04:53:33;;;;;;;2.87;2.77;;;20.20;38.40;;;;;;4976783;28;20248;-60
2022/05/31 04:56:00;;;;;;;3.17;3.00;;;20.20;39.10;;;;;;4979897;28;20282;-60
2022/05/31 04:58:26;;;;;;;3.07;2.77;;;20.30;38.40;;;;;;4976470;28;20458;-60
2022/05/31 05:00:51;;;;;;;3.53;3.33;;;20.20;38.40;;;;;;4977367;28;20465;-60
2022/05/31 05:03:17;;;;;;;3.27;3.07;;;20.30;38.40;;;;;;4981217;28;20228;-60
2022/05/31 05:05:42;;;;;;;2.63;2.53;;;20.30;38.50;;;;;;4978071;28;20245;-60
2022/05/31 05:08:08;;;;;;;3.00;2.90;;;20.30;38.50;;;;;;4979034;28;20231;-59
2022/05/31 05:10:33;;;;;;;3.40;3.20;;;20.30;38.50;;;;;;4985985;28;20217;-60
2022/05/31 05:12:59;;;;;;;3.10;2.90;;;20.30;38.50;;;;;;4985451;28;20225;-60
2022/05/31 05:15:25;;;;;;;3.50;3.30;;;20.30;38.50;;;;;;4996084;28;20228;-62
2022/05/31 05:17:50;;;;;;;2.97;2.80;;;20.30;38.60;;;;;;4984461;28;20240;-61
2022/05/31 05:20:16;;;;;;;3.13;2.93;;;20.30;38.60;;;;;;4977900;28;20241;-60
2022/05/31 05:22:41;;;;;;;3.20;2.97;;;20.30;38.60;;;;;;4986524;28;20236;-61
2022/05/31 05:25:08;;;;;;;2.87;2.77;;;20.30;38.60;;;;;;4977536;28;20245;-61
2022/05/31 05:27:34;;;;;;;3.00;2.80;;;20.30;38.60;;;;;;4983494;28;20249;-61
2022/05/31 05:32:43;;;;;;;3.17;2.97;;;20.30;38.70;;;;;;4982676;28;20224;-59
2022/05/31 05:35:09;;;;;;;3.40;3.10;;;20.30;38.70;;;;;;4982599;28;20447;-60
2022/05/31 05:37:34;;;;;;;2.80;2.60;;;20.30;38.70;;;;;;4984074;28;20263;-61
2022/05/31 05:40:00;;;;;;;2.60;2.50;;;20.30;38.60;;;;;;4979904;28;20233;-62
2022/05/31 05:42:26;;;;;;;2.60;2.50;;;20.30;38.70;;;;;;4983820;28;20217;-62
2022/05/31 05:44:52;;;;;;;3.23;3.03;;;20.30;38.70;;;;;;4982731;28;20229;-62
2022/05/31 05:47:17;;;;;;;3.10;2.90;;;20.30;38.70;;;;;;4976670;28;20283;-62
2022/05/31 05:49:43;;;;;;;3.07;2.97;;;20.30;38.70;;;;;;4982714;28;20237;-61
2022/05/31 05:52:14;;;;;;;7.60;3.20;;;20.30;38.70;;;;;;4983475;28;20233;-62
2022/05/31 05:54:39;;;;;;;3.50;2.30;;;20.30;38.40;;;;;;4982139;28;20445;-62
2022/05/31 05:57:05;;;;;;;3.47;2.53;;;20.30;38.10;;;;;;4984174;28;20466;-62
2022/05/31 05:59:30;;;;;;;3.50;3.30;;;20.30;37.80;;;;;;4979581;28;20217;-61
2022/05/31 06:02:05;;;;;;;2.90;2.80;;;20.40;37.90;;;;;;4984033;28;20271;-61
2022/05/31 06:04:43;;;;;;;4.23;2.70;;;20.30;37.70;;;;;;4983162;28;20229;-61
2022/05/31 06:07:31;;;;;;;2.90;2.57;;;20.40;37.80;;;;;;4977693;28;21166;-61
2022/05/31 06:10:32;;;;;;;2.63;2.50;;;20.30;37.80;;;;;;4980874;28;20422;-61
2022/05/31 06:13:06;;;;;;;3.13;2.87;;;20.30;37.90;;;;;;4977183;28;20462;-61
2022/05/31 06:15:37;;;;;;;2.97;2.77;;;20.30;38.00;;;;;;4977770;28;20484;-60
2022/05/31 06:18:09;;;;;;;3.00;2.70;;;20.40;38.20;;;;;;4978574;28;20436;-61
2022/05/31 06:20:35;;;;;;;2.70;2.50;;;20.40;38.30;;;;;;4977386;28;20799;-61
2022/05/31 06:23:01;;;;;;;2.40;2.30;;;20.30;38.30;;;;;;4980769;28;20433;-61
2022/05/31 06:25:27;;;;;;;2.90;2.60;;;20.30;38.30;;;;;;4973482;28;20323;-62
2022/05/31 06:27:53;;;;;;;3.37;3.17;;;20.30;38.40;;;;;;4978883;28;20526;-62
2022/05/31 06:30:19;;;;;;;2.60;2.50;;;20.30;38.40;;;;;;4987121;28;20272;-62
2022/05/31 06:32:45;;;;;;;3.27;3.07;;;20.30;38.40;;;;;;4984384;28;20281;-60
2022/05/31 06:35:10;;;;;;;3.07;2.87;;;20.30;38.50;;;;;;4981609;28;20437;-61
2022/05/31 06:37:36;;;;;;;4.80;2.40;;;20.30;38.60;;;;;;4985307;28;20227;-61
2022/05/31 06:40:03;;;;;;;2.80;2.47;;;20.30;38.30;;;;;;4985258;28;20223;-61
2022/05/31 06:42:31;;;;;;;2.80;2.70;;;20.40;38.50;;;;;;4982460;28;20458;-60
2022/05/31 06:44:57;;;;;;;2.43;2.23;;;20.40;38.50;;;;;;4985971;28;20450;-61
2022/05/31 06:47:22;;;;;;;3.47;3.00;;;20.40;38.60;;;;;;4979115;28;20450;-61
2022/05/31 06:49:48;;;;;;;2.87;2.77;;;20.30;38.50;;;;;;4986095;28;20491;-61
2022/05/31 06:57:45;;;;;;;2.30;2.20;;;20.40;38.80;;;;;;4980948;28;20505;-61
2022/05/31 07:00:15;;;;;;;2.50;2.30;;;20.30;38.70;;;;;;4979539;28;20467;-60
2022/05/31 07:02:40;;;;;;;2.20;2.10;;;20.30;38.80;;;;;;4982484;28;20470;-61
2022/05/31 07:05:06;;;;;;;3.30;2.57;;;20.30;38.90;;;;;;4982187;28;20464;-60
2022/05/31 07:07:34;;;;;;;2.87;2.77;;;20.30;38.80;;;;;;4976873;28;20231;-61
2022/05/31 07:10:00;;;;;;;2.73;2.53;;;20.30;39.00;;;;;;4983813;28;20445;-61
2022/05/31 07:12:27;;;;;;;2.80;2.70;;;20.30;39.00;;;;;;4980713;28;20529;-60
2022/05/31 07:14:52;;;;;;;2.57;2.47;;;20.30;39.00;;;;;;4976731;28;20447;-61
2022/05/31 07:17:18;;;;;;;2.20;2.10;;;20.30;39.00;;;;;;4981275;28;20459;-60
2022/05/31 07:19:43;;;;;;;2.47;2.37;;;20.30;39.00;;;;;;4980323;28;20236;-60
2022/05/31 07:22:09;;;;;;;2.83;2.63;;;20.30;39.10;;;;;;4983264;28;20251;-61
2022/05/31 07:24:34;;;;;;;2.40;2.30;;;20.30;39.10;;;;;;4977680;28;20268;-60
2022/05/31 07:27:00;;;;;;;2.50;2.30;;;20.30;39.10;;;;;;4982011;28;20213;-60
2022/05/31 07:29:28;;;;;;;2.50;2.40;;;20.30;39.10;;;;;;4981667;28;20765;-60
2022/05/31 07:31:53;;;;;;;2.40;2.30;;;20.30;39.20;;;;;;4978454;28;20227;-60
2022/05/31 07:34:19;;;;;;;2.63;2.53;;;20.30;39.20;;;;;;4976169;28;20458;-61
2022/05/31 07:36:45;;;;;;;2.70;2.60;;;20.30;39.30;;;;;;4977997;28;20227;-60
2022/05/31 07:39:14;;;;;;;2.60;2.40;;;20.30;39.30;;;;;;4978965;28;20478;-60
2022/05/31 07:41:40;;;;;;;2.77;2.57;;;20.30;39.30;;;;;;4977033;28;20244;-60
2022/05/31 07:44:06;;;;;;;2.70;2.50;;;20.30;39.50;;;;;;4975850;28;20459;-60
2022/05/31 07:46:32;;;;;;;2.50;2.30;;;20.30;39.40;;;;;;4973376;28;20417;-60
2022/05/31 07:48:59;;;;;;;9.10;2.40;;;20.30;39.40;;;;;;4987886;28;20228;-60
2022/05/31 07:51:26;;;;;;;2.73;2.53;;;20.30;39.40;;;;;;4982381;28;20466;-60
2022/05/31 07:53:52;;;;;;;2.53;2.40;;;20.30;39.40;;;;;;4979659;28;20772;-60
2022/05/31 07:56:19;;;;;;;2.20;2.10;;;20.30;39.50;;;;;;4982359;28;20433;-60
2022/05/31 07:58:46;;;;;;;2.30;2.20;;;20.30;39.40;;;;;;4982495;28;20418;-60
2022/05/31 08:01:18;;;;;;;2.57;2.37;;;20.30;39.50;;;;;;4981574;28;20486;-60
2022/05/31 08:03:44;;;;;;;2.17;2.07;;;20.30;39.50;;;;;;4984506;28;20575;-60
2022/05/31 08:06:16;;;;;;;2.43;2.33;;;20.30;39.50;;;;;;4986714;28;20990;-61
2022/05/31 08:08:42;;;;;;;2.20;2.10;;;20.30;39.50;;;;;;4982941;28;21222;-62
2022/05/31 08:11:20;;;;;;;2.57;2.37;;;20.30;39.50;;;;;;4983893;28;20433;-62
2022/05/31 08:13:46;;;;;;;2.67;2.47;;;20.30;39.50;;;;;;4976380;28;20430;-62
2022/05/31 08:16:14;;;;;;;2.53;2.43;;;20.30;39.50;;;;;;4982721;28;20449;-62
2022/05/31 08:18:42;;;;;;;2.80;2.43;;;20.30;39.50;;;;;;4980230;28;20424;-61
2022/05/31 08:21:11;;;;;;;2.20;2.10;;;20.30;39.50;;;;;;4980098;28;20468;-61
2022/05/31 08:23:37;;;;;;;3.20;2.27;;;20.30;39.50;;;;;;4983340;28;20426;-61
2022/05/31 08:26:04;;;;;;;2.07;1.97;;;20.30;39.50;;;;;;4979463;28;20438;-61
2022/05/31 08:28:31;;;;;;;2.87;2.47;;;20.30;39.50;;;;;;4976426;28;20432;-60
2022/05/31 08:30:59;;;;;;;2.40;2.30;;;20.30;39.50;;;;;;4982530;28;20461;-61
2022/05/31 08:33:25;;;;;;;2.60;2.50;;;20.30;39.50;;;;;;4975989;28;20486;-61
2022/05/31 08:35:51;;;;;;;2.50;2.40;;;20.30;39.50;;;;;;4979135;28;20924;-61
2022/05/31 08:38:17;;;;;;;2.50;2.30;;;20.30;39.50;;;;;;4979616;28;20728;-61
2022/05/31 08:41:03;;;;;;;2.70;2.20;;;20.30;39.50;;;;;;4977400;28;20556;-61
2022/05/31 08:43:46;;;;;;;2.67;2.57;;;20.30;39.50;;;;;;4982588;28;20232;-61
2022/05/31 08:46:35;;;;;;;3.20;2.30;;;20.30;39.50;;;;;;4980902;28;20931;-60
2022/05/31 08:52:28;;;;;;;2.20;2.00;;;20.30;39.50;;;;;;4952126;28;20836;-60
2022/05/31 08:57:50;;;;;;;2.20;2.10;;;20.30;39.50;;;;;;4981285;28;21079;-61
2022/05/31 09:00:30;;;;;;;2.57;2.40;;;20.30;39.50;;;;;;4977781;28;21044;-60
2022/05/31 09:03:02;;;;;;;2.43;2.23;;;20.30;39.50;;;;;;4982199;28;20426;-61
2022/05/31 09:05:32;;;;;;;2.37;2.17;;;20.30;39.50;;;;;;4979101;28;20425;-60
2022/05/31 09:08:18;;;;;;;2.10;2.00;;;20.30;39.50;;;;;;4986848;28;20436;-60
2022/05/31 09:11:01;;;;;;;2.13;2.03;;;20.30;39.50;;;;;;4985154;28;21052;-60
2022/05/31 09:13:35;;;;;;;2.00;1.90;;;20.30;39.50;;;;;;4981661;28;20445;-61
2022/05/31 09:16:09;;;;;;;2.40;2.20;;;20.30;39.50;;;;;;4983230;28;20462;-60
2022/05/31 09:18:40;;;;;;;2.17;2.07;;;20.30;39.50;;;;;;4985989;28;20446;-61
2022/05/31 09:21:18;;;;;;;2.50;2.40;;;20.30;39.50;;;;;;4986397;28;20463;-61
2022/05/31 09:23:45;;;;;;;2.33;2.10;;;20.30;39.50;;;;;;4988333;28;20431;-60
2022/05/31 09:26:32;;;;;;;3.10;2.10;;;20.30;39.50;;;;;;4981012;28;20473;-60
2022/05/31 09:29:10;;;;;;;2.70;2.47;;;20.30;39.50;;;;;;4988540;28;20466;-60
2022/05/31 09:31:43;;;;;;;2.13;2.03;;;20.30;39.50;;;;;;4985699;28;20556;-60
2022/05/31 09:34:36;;;;;;;2.53;2.33;;;20.30;39.50;;;;;;4978569;28;20522;-60
2022/05/31 09:37:32;;;;;;;2.53;2.33;;;20.30;39.50;;;;;;4985756;28;20949;-60
2022/05/31 09:40:37;;;;;;;2.47;2.37;;;20.30;39.50;;;;;;4980537;28;20444;-60
2022/05/31 09:43:04;;;;;;;2.50;2.40;;;20.30;39.50;;;;;;4988186;28;20470;-60
2022/05/31 09:45:34;;;;;;;2.43;2.33;;;20.30;39.50;;;;;;4983797;28;20440;-60
2022/05/31 09:48:03;;;;;;;2.33;2.17;;;20.30;39.50;;;;;;4979263;28;20823;-60
2022/05/31 09:50:29;;;;;;;2.37;2.27;;;20.30;39.50;;;;;;4983496;28;20543;-60
2022/05/31 09:52:58;;;;;;;2.60;2.40;;;20.30;39.50;;;;;;4985025;28;20435;-60
2022/05/31 09:58:29;;;;;;;2.03;1.93;;;20.30;39.50;;;;;;4981693;28;20454;-60
2022/05/31 10:01:13;;;;;;;2.57;2.47;;;20.30;39.50;;;;;;4978389;28;20469;-60
2022/05/31 10:03:48;;;;;;;2.17;2.07;;;20.30;39.50;;;;;;4981285;28;20540;-60
2022/05/31 10:06:30;;;;;;;2.50;2.30;;;20.30;39.50;;;;;;4979887;28;20459;-61
2022/05/31 10:08:56;;;;;;;2.30;2.20;;;20.30;39.50;;;;;;4983282;28;20443;-61
2022/05/31 10:11:30;;;;;;;2.07;1.97;;;20.30;39.50;;;;;;4983354;28;20455;-61
2022/05/31 10:14:00;;;;;;;2.43;2.27;;;20.30;39.50;;;;;;4987443;28;20855;-60
2022/05/31 10:16:34;;;;;;;2.30;2.20;;;20.30;40.20;;;;;;4980794;28;20467;-60
2022/05/31 10:19:03;;;;;;;2.27;2.17;;;20.30;39.50;;;;;;4979553;28;20485;-60
2022/05/31 10:21:33;;;;;;;2.90;2.80;;;20.30;39.50;;;;;;4977889;28;20529;-60
2022/05/31 10:24:24;;;;;;;2.53;2.43;;;20.30;39.50;;;;;;4979799;28;20450;-61
2022/05/31 10:27:07;;;;;;;2.40;2.20;;;20.30;39.50;;;;;;4978110;28;20542;-60
2022/05/31 10:29:40;;;;;;;2.00;1.90;;;20.30;39.50;;;;;;4982418;28;20460;-61
2022/05/31 10:32:35;;;;;;;2.50;2.30;;;20.30;39.50;;;;;;4981044;28;20429;-61
2022/05/31 10:35:21;;;;;;;1.80;1.70;;;20.30;39.50;;;;;;4980768;28;20541;-60
2022/05/31 10:38:00;;;;;;;2.10;2.00;;;20.30;39.50;;;;;;4982850;28;20462;-60
2022/05/31 10:40:28;;;;;;;2.60;2.50;;;20.20;39.40;;;;;;4983746;28;20512;-61
2022/05/31 10:43:01;;;;;;;2.30;2.20;;;20.30;39.60;;;;;;4981476;28;20944;-60
2022/05/31 10:45:31;;;;;;;1.97;1.77;;;20.30;39.50;;;;;;4982986;28;20823;-60
2022/05/31 10:47:58;;;;;;;2.10;2.00;;;20.30;39.50;;;;;;4976754;28;20455;-60
2022/05/31 10:50:33;;;;;;;2.27;2.17;;;20.30;39.50;;;;;;4985244;28;20450;-60
2022/05/31 10:53:13;;;;;;;2.40;2.30;;;20.30;39.50;;;;;;4982953;28;20430;-60
2022/05/31 10:55:49;;;;;;;2.10;2.00;;;20.30;39.50;;;;;;4985481;28;20556;-60
2022/05/31 10:58:42;;;;;;;2.63;2.47;;;20.30;39.50;;;;;;4984265;28;20426;-60
2022/05/31 11:01:38;;;;;;;2.20;2.10;;;20.30;39.50;;;;;;4981216;28;20496;-60
2022/05/31 11:04:21;;;;;;;2.03;1.90;;;20.30;39.50;;;;;;4986004;28;20494;-60
2022/05/31 11:07:21;;;;;;;2.47;2.33;;;20.20;39.40;;;;;;4978777;28;20513;-60
2022/05/31 11:13:53;;;;;;;1.90;1.80;;;20.30;39.50;;;;;;4974972;28;20469;-60
2022/05/31 11:16:27;;;;;;;2.53;2.33;;;20.20;39.40;;;;;;4983722;28;20473;-60
2022/05/31 11:19:33;;;;;;;2.33;2.23;;;20.30;39.50;;;;;;4980566;28;20425;-60
2022/05/31 11:22:10;;;;;;;2.20;2.10;;;20.30;39.50;;;;;;4980939;28;20470;-60
2022/05/31 11:25:10;;;;;;;2.07;1.97;;;20.30;39.50;;;;;;4981379;28;21093;-60
2022/05/31 11:28:06;;;;;;;2.20;2.10;;;20.20;39.50;;;;;;4966303;28;20426;-60
2022/05/31 11:31:04;;;;;;;2.30;2.17;;;20.20;39.60;;;;;;4980318;28;20464;-60
2022/05/31 11:33:39;;;;;;;2.43;2.33;;;20.30;39.70;;;;;;4980690;28;20436;-60
2022/05/31 11:36:19;;;;;;;2.93;2.30;;;20.20;39.60;;;;;;4985606;28;20557;-60
2022/05/31 11:39:19;;;;;;;2.73;2.53;;;20.20;39.70;;;;;;4979181;28;21015;-60
2022/05/31 11:42:17;;;;;;;2.73;2.53;;;20.20;39.70;;;;;;4979863;28;20996;-60
2022/05/31 11:45:05;;;;;;;1.97;1.87;;;20.20;39.70;;;;;;4959976;28;20839;-60
2022/05/31 11:48:08;;;;;;;2.30;2.20;;;20.20;39.70;;;;;;4979390;28;20470;-60
2022/05/31 11:50:56;;;;;;;2.13;2.00;;;20.20;39.70;;;;;;4976728;28;20479;-60
2022/05/31 11:53:47;;;;;;;2.40;2.30;;;20.20;39.70;;;;;;4978078;28;20480;-60
2022/05/31 11:56:57;;;;;;;2.80;2.70;;;20.20;39.80;;;;;;4978175;28;20501;-60
2022/05/31 11:59:48;;;;;;;2.07;1.97;;;20.20;39.90;;;;;;4980818;28;21330;-60
2022/05/31 12:02:38;;;;;;;2.30;2.13;;;20.20;39.80;;;;;;4982883;28;20487;-60
2022/05/31 12:05:37;;;;;;;2.43;2.33;;;20.20;39.80;;;;;;4982944;28;20432;-62
2022/05/31 12:08:21;;;;;;;2.20;2.10;;;20.20;39.80;;;;;;4977600;28;20455;-61
2022/05/31 12:10:54;;;;;;;2.13;2.03;;;20.20;40.60;;;;;;4987112;28;20453;-62
2022/05/31 12:13:20;;;;;;;2.60;2.50;;;20.30;39.90;;;;;;4981969;28;20454;-61
2022/05/31 12:15:50;;;;;;;2.20;2.10;;;20.20;39.80;;;;;;4986070;28;20482;-62
2022/05/31 12:18:44;;;;;;;2.43;2.33;;;20.20;39.80;;;;;;4984593;28;20458;-62
2022/05/31 12:21:29;;;;;;;2.50;2.40;;;20.20;39.80;;;;;;4978196;28;20463;-62
2022/05/31 12:24:12;;;;;;;2.10;2.00;;;20.20;39.80;;;;;;4986069;28;20450;-61
2022/05/31 12:26:56;;;;;;;2.47;2.30;;;20.20;39.80;;;;;;4981812;28;20451;-62
2022/05/31 12:29:29;;;;;;;2.20;2.10;;;20.20;39.80;;;;;;4985005;28;20454;-61
2022/05/31 12:32:26;;;;;;;2.00;1.90;;;20.20;39.80;;;;;;4986043;28;20454;-61
2022/05/31 12:34:52;;;;;;;2.50;2.40;;;20.30;39.80;;;;;;4977913;28;20459;-60
2022/05/31 12:37:17;;;;;;;2.40;2.30;;;20.20;39.90;;;;;;4986064;28;20461;-60
2022/05/31 12:39:46;;;;;;;2.67;2.47;;;20.20;39.90;;;;;;4982401;28;20308;-60
2022/05/31 12:42:15;;;;;;;2.73;2.53;;;20.20;39.90;;;;;;4981070;28;20255;-61
2022/05/31 12:44:46;;;;;;;2.20;2.10;;;20.20;39.90;;;;;;4982869;28;20464;-60
2022/05/31 12:47:17;;;;;;;2.03;1.93;;;20.30;40.00;;;;;;4982616;28;20447;-61
2022/05/31 12:49:52;;;;;;;2.60;2.40;;;20.20;40.00;;;;;;4981271;28;20451;-61
2022/05/31 12:54:53;;;;;;;2.40;2.30;;;20.30;40.00;;;;;;4978846;28;20454;-61
2022/05/31 12:57:21;;;;;;;2.20;2.10;;;20.20;39.90;;;;;;4983197;28;20458;-61
2022/05/31 12:59:49;;;;;;;2.70;2.60;;;20.30;40.00;;;;;;4981781;28;20434;-61
2022/05/31 13:02:29;;;;;;;2.50;2.40;;;20.20;39.90;;;;;;4979349;28;20507;-60
2022/05/31 13:04:59;;;;;;;2.30;2.20;;;20.30;40.00;;;;;;4979655;28;20462;-60
2022/05/31 13:07:45;;;;;;;2.20;2.10;;;20.30;40.00;;;;;;4979069;28;20465;-60
2022/05/31 13:10:33;;;;;;;2.03;1.90;;;20.30;40.00;;;;;;4979246;28;20428;-60
2022/05/31 13:21:18;;;;;;;2.27;2.17;;;20.30;40.00;;;;;;4977750;28;20478;-60
2022/05/31 13:23:46;;;;;;;2.40;2.30;;;20.30;40.00;;;;;;4986490;28;20454;-61
2022/05/31 13:26:20;;;;;;;2.07;1.97;;;20.30;40.00;;;;;;4983435;28;20240;-61
2022/05/31 13:29:07;;;;;;;2.20;2.10;;;20.20;39.90;;;;;;4979259;28;20929;-60
2022/05/31 13:31:37;;;;;;;2.70;2.60;;;20.20;39.90;;;;;;4985842;28;20452;-61
2022/05/31 13:34:06;;;;;;;2.77;2.67;;;20.20;39.90;;;;;;4978463;28;20458;-60
2022/05/31 13:36:45;;;;;;;2.30;2.20;;;20.30;40.30;;;;;;4986907;28;20498;-60
2022/05/31 13:39:13;;;;;;;2.30;2.10;;;20.30;40.10;;;;;;4983553;28;20882;-60
2022/05/31 13:41:45;;;;;;;2.37;2.27;;;20.30;40.10;;;;;;4979829;28;20460;-60
2022/05/31 13:44:11;;;;;;;2.20;2.10;;;20.20;39.90;;;;;;4986487;28;20459;-60
2022/05/31 13:46:42;;;;;;;2.60;2.50;;;20.30;40.10;;;;;;4984247;28;20536;-60